createdAt,value
2017-12-06T00:01:45.845Z,93.00
2017-12-06T00:04:16.040Z,93.10
2017-12-06T00:06:45.459Z,93.10
2017-12-06T00:09:14.908Z,93.20
2017-12-06T00:11:44.664Z,93.20
2017-12-06T00:14:19.555Z,93.40
2017-12-06T00:16:49.004Z,93.10
2017-12-06T00:19:18.730Z,93.30
2017-12-06T00:21:48.739Z,93.20
2017-12-06T00:24:19.114Z,93.40
2017-12-06T00:26:48.577Z,93.40
2017-12-06T00:29:18.023Z,93.40
2017-12-06T00:31:47.961Z,93.40
2017-12-06T00:34:17.191Z,93.30
2017-12-06T00:36:46.448Z,93.40
2017-12-06T00:39:15.889Z,93.40
2017-12-06T00:41:45.117Z,93.30
2017-12-06T00:44:14.590Z,93.20
2017-12-06T00:46:44.343Z,93.50
2017-12-06T00:49:13.822Z,93.50
2017-12-06T00:51:43.254Z,93.00
2017-12-06T00:54:13.026Z,93.00
2017-12-06T00:56:42.585Z,93.30
2017-12-06T00:59:12.043Z,93.30
2017-12-06T01:01:41.620Z,93.10
2017-12-06T01:04:11.045Z,93.20
2017-12-06T01:06:41.612Z,93.60
2017-12-06T01:09:11.035Z,93.30
2017-12-06T01:11:40.481Z,93.00
2017-12-06T01:14:10.079Z,93.10
2017-12-06T01:16:39.404Z,93.00
2017-12-06T01:19:08.812Z,93.50
2017-12-06T01:21:38.641Z,93.50
2017-12-06T01:24:08.074Z,93.10
2017-12-06T01:26:37.494Z,93.00
2017-12-06T01:29:06.990Z,93.00
2017-12-06T01:31:36.435Z,93.00
2017-12-06T01:34:05.875Z,93.20
2017-12-06T01:36:36.341Z,93.20
2017-12-06T01:39:05.479Z,93.20
2017-12-06T01:41:34.933Z,93.10
2017-12-06T01:44:05.515Z,93.30
2017-12-06T01:46:34.787Z,93.30
2017-12-06T01:49:04.677Z,93.20
2017-12-06T01:51:34.115Z,93.20
2017-12-06T01:54:03.211Z,93.00
2017-12-06T01:56:32.312Z,93.10
2017-12-06T01:59:02.001Z,93.00
2017-12-06T02:01:31.084Z,93.20
2017-12-06T02:04:01.282Z,93.40
2017-12-06T02:06:30.726Z,93.40
2017-12-06T02:09:00.978Z,93.40
2017-12-06T02:11:30.295Z,93.40
2017-12-06T02:13:59.735Z,93.40
2017-12-06T02:16:28.503Z,93.20
2017-12-06T02:18:58.239Z,93.20
2017-12-06T02:21:27.005Z,93.20
2017-12-06T02:23:56.584Z,93.10
2017-12-06T02:26:25.586Z,93.10
2017-12-06T02:28:54.223Z,93.30
2017-12-06T02:31:23.631Z,93.30
2017-12-06T02:33:53.321Z,93.30
2017-12-06T02:36:22.771Z,93.10
2017-12-06T02:38:52.307Z,93.50
2017-12-06T02:41:33.921Z,93.70
2017-12-06T02:44:14.436Z,93.70
2017-12-06T02:46:44.046Z,93.20
2017-12-06T02:49:13.142Z,93.30
2017-12-06T02:51:42.704Z,93.10
2017-12-06T02:54:12.623Z,93.30
2017-12-06T02:56:42.206Z,93.10
2017-12-06T02:59:11.650Z,93.50
2017-12-06T03:01:41.294Z,93.40
2017-12-06T03:04:10.173Z,93.40
2017-12-06T03:06:39.584Z,93.50
2017-12-06T03:09:09.378Z,93.30
2017-12-06T03:11:39.866Z,93.30
2017-12-06T03:14:09.379Z,93.30
2017-12-06T03:16:38.819Z,93.30
2017-12-06T03:19:09.046Z,93.30
2017-12-06T03:21:38.687Z,93.30
2017-12-06T03:24:09.251Z,93.30
2017-12-06T03:26:38.739Z,93.30
2017-12-06T03:29:09.247Z,93.60
2017-12-06T03:31:38.683Z,93.20
2017-12-06T03:34:08.975Z,93.10
2017-12-06T03:36:38.194Z,93.10
2017-12-06T03:39:07.623Z,93.30
2017-12-06T03:41:37.415Z,93.10
2017-12-06T03:44:06.833Z,93.20
2017-12-06T03:46:36.257Z,93.20
2017-12-06T03:49:06.151Z,93.40
2017-12-06T03:51:35.625Z,93.30
2017-12-06T03:54:05.051Z,93.40
2017-12-06T03:56:34.835Z,93.40
2017-12-06T03:59:04.074Z,93.60
2017-12-06T04:01:33.611Z,93.70
2017-12-06T04:04:03.825Z,93.70
2017-12-06T04:06:33.267Z,93.70
2017-12-06T04:09:03.211Z,93.80
2017-12-06T04:11:32.667Z,93.80
2017-12-06T04:14:01.939Z,93.60
2017-12-06T04:16:32.306Z,93.50
2017-12-06T04:19:01.787Z,93.50
2017-12-06T04:21:31.216Z,93.80
2017-12-06T04:24:00.687Z,93.60
2017-12-06T04:26:30.110Z,93.80
2017-12-06T04:28:59.570Z,93.80
2017-12-06T04:31:29.401Z,93.90
2017-12-06T04:33:58.831Z,93.90
2017-12-06T04:36:28.270Z,93.90
2017-12-06T04:38:58.072Z,93.90
2017-12-06T04:41:27.500Z,94.20
2017-12-06T04:43:56.945Z,94.10
2017-12-06T04:46:27.175Z,94.20
2017-12-06T04:48:57.423Z,94.10
2017-12-06T04:51:27.989Z,94.10
2017-12-06T04:53:57.466Z,94.10
2017-12-06T04:56:26.942Z,94.20
2017-12-06T04:58:56.969Z,94.20
2017-12-06T05:01:26.394Z,94.20
2017-12-06T05:03:55.848Z,94.20
2017-12-06T05:06:26.082Z,94.20
2017-12-06T05:08:56.679Z,93.80
2017-12-06T05:11:26.129Z,94.00
2017-12-06T05:13:55.588Z,94.20
2017-12-06T05:16:25.444Z,94.00
2017-12-06T05:18:54.895Z,94.10
2017-12-06T05:21:24.346Z,94.20
2017-12-06T05:23:54.366Z,94.10
2017-12-06T05:26:24.561Z,93.90
2017-12-06T05:28:54.325Z,93.90
2017-12-06T05:31:23.812Z,93.90
2017-12-06T05:33:53.242Z,94.10
2017-12-06T05:36:24.015Z,94.00
2017-12-06T05:38:55.016Z,94.00
2017-12-06T05:41:24.137Z,94.00
2017-12-06T05:43:53.339Z,94.10
2017-12-06T05:46:22.778Z,94.00
2017-12-06T05:48:53.344Z,94.00
2017-12-06T05:51:22.808Z,94.00
2017-12-06T05:53:52.243Z,94.20
2017-12-06T05:56:22.826Z,93.80
2017-12-06T05:58:52.384Z,93.80
2017-12-06T06:01:21.870Z,94.10
2017-12-06T06:03:52.229Z,93.90
2017-12-06T06:06:21.660Z,93.90
2017-12-06T06:08:51.092Z,93.70
2017-12-06T06:11:21.650Z,93.80
2017-12-06T06:13:51.070Z,93.80
2017-12-06T06:16:20.526Z,93.80
2017-12-06T06:18:49.947Z,93.60
2017-12-06T06:21:19.362Z,93.60
2017-12-06T06:23:49.141Z,93.70
2017-12-06T06:26:19.071Z,93.70
2017-12-06T06:28:48.535Z,93.60
2017-12-06T06:31:17.996Z,93.70
2017-12-06T06:33:47.510Z,94.00
2017-12-06T06:36:16.983Z,93.90
2017-12-06T06:38:46.405Z,93.60
2017-12-06T06:41:15.848Z,93.60
2017-12-06T06:43:45.340Z,93.80
2017-12-06T06:46:15.131Z,93.80
2017-12-06T06:48:44.931Z,93.90
2017-12-06T06:51:14.362Z,93.80
2017-12-06T06:53:43.824Z,93.70
2017-12-06T06:56:14.009Z,93.70
2017-12-06T06:58:43.500Z,93.70
2017-12-06T07:01:12.984Z,93.60
2017-12-06T07:03:42.661Z,93.50
2017-12-06T07:06:12.186Z,93.50
2017-12-06T07:08:41.575Z,93.50
2017-12-06T07:11:11.222Z,93.70
2017-12-06T07:13:40.662Z,93.60
2017-12-06T07:16:10.099Z,93.30
2017-12-06T07:18:39.886Z,93.40
2017-12-06T07:21:09.349Z,93.40
2017-12-06T07:23:38.968Z,93.30
2017-12-06T07:26:09.199Z,93.50
2017-12-06T07:28:38.464Z,93.50
2017-12-06T07:31:07.758Z,93.50
2017-12-06T07:33:37.983Z,93.60
2017-12-06T07:36:07.432Z,93.50
2017-12-06T07:38:36.852Z,93.40
2017-12-06T07:41:06.756Z,93.40
2017-12-06T07:43:36.490Z,93.30
2017-12-06T07:46:05.920Z,93.50
2017-12-06T07:48:35.511Z,93.30
2017-12-06T07:51:05.005Z,93.30
2017-12-06T07:53:35.571Z,93.30
2017-12-06T07:56:05.063Z,93.30
2017-12-06T07:58:40.641Z,93.50
2017-12-06T08:01:10.914Z,93.70
2017-12-06T08:03:40.744Z,93.70
2017-12-06T08:06:10.156Z,93.70
2017-12-06T08:08:39.641Z,93.70
2017-12-06T08:11:09.464Z,93.90
2017-12-06T08:13:38.958Z,93.90
2017-12-06T08:16:08.374Z,93.70
2017-12-06T08:18:37.672Z,93.60
2017-12-06T08:21:07.881Z,93.40
2017-12-06T08:23:38.104Z,93.40
2017-12-06T08:26:07.192Z,93.80
2017-12-06T08:28:36.643Z,93.50
2017-12-06T08:31:06.088Z,93.60
2017-12-06T08:33:35.583Z,93.60
2017-12-06T08:36:04.993Z,93.60
2017-12-06T08:38:34.141Z,93.30
2017-12-06T08:41:03.389Z,93.50
2017-12-06T08:43:32.900Z,93.40
2017-12-06T08:46:02.403Z,93.40
2017-12-06T08:48:31.826Z,93.30
2017-12-06T08:51:00.929Z,93.20
2017-12-06T08:53:30.654Z,93.50
2017-12-06T08:56:00.074Z,93.40
2017-12-06T08:58:29.495Z,93.40
2017-12-06T09:00:58.612Z,93.50
2017-12-06T09:03:27.702Z,93.40
2017-12-06T09:05:57.197Z,93.20
2017-12-06T09:08:26.726Z,93.30
2017-12-06T09:10:55.519Z,93.30
2017-12-06T09:13:24.329Z,93.50
2017-12-06T09:15:54.275Z,93.40
2017-12-06T09:18:23.388Z,93.20
2017-12-06T09:20:53.075Z,93.00
2017-12-06T09:23:22.316Z,93.00
2017-12-06T09:25:51.756Z,93.60
2017-12-06T09:28:21.188Z,93.00
2017-12-06T09:30:51.407Z,93.10
2017-12-06T09:33:21.282Z,93.70
2017-12-06T09:35:50.704Z,93.20
2017-12-06T09:38:20.166Z,93.30
2017-12-06T09:40:49.626Z,92.90
2017-12-06T09:43:19.127Z,92.90
2017-12-06T09:45:48.988Z,92.80
2017-12-06T09:48:18.445Z,93.00
2017-12-06T09:50:48.354Z,93.00
2017-12-06T09:53:17.770Z,93.00
2017-12-06T09:55:47.200Z,92.90
2017-12-06T09:58:17.408Z,93.10
2017-12-06T10:00:46.865Z,92.90
2017-12-06T10:03:16.317Z,92.80
2017-12-06T10:05:45.763Z,93.00
2017-12-06T10:08:15.184Z,92.90
2017-12-06T10:10:44.628Z,92.70
2017-12-06T10:13:15.194Z,92.80
2017-12-06T10:15:44.663Z,92.80
2017-12-06T10:18:14.147Z,92.50
2017-12-06T10:20:43.967Z,92.40
2017-12-06T10:23:13.401Z,92.40
2017-12-06T10:25:42.492Z,92.40
2017-12-06T10:28:13.071Z,92.60
2017-12-06T10:30:42.219Z,92.60
2017-12-06T10:33:11.295Z,92.60
2017-12-06T10:35:40.187Z,92.70
2017-12-06T10:38:09.611Z,92.40
2017-12-06T10:40:40.208Z,92.30
2017-12-06T10:43:09.657Z,92.20
2017-12-06T10:45:38.539Z,92.70
2017-12-06T10:48:08.036Z,92.20
2017-12-06T10:50:37.465Z,92.40
2017-12-06T10:53:06.892Z,92.40
2017-12-06T10:55:36.660Z,92.60
2017-12-06T10:58:06.075Z,92.60
2017-12-06T11:00:35.532Z,92.70
2017-12-06T11:03:05.240Z,92.50
2017-12-06T11:05:34.718Z,92.50
2017-12-06T11:08:04.161Z,92.40
2017-12-06T11:10:34.639Z,92.40
2017-12-06T11:13:04.097Z,92.40
2017-12-06T11:15:33.543Z,92.60
2017-12-06T11:18:02.988Z,92.40
2017-12-06T11:20:32.420Z,92.50
2017-12-06T11:23:01.883Z,92.50
2017-12-06T11:25:32.987Z,92.20
2017-12-06T11:28:02.431Z,92.10
2017-12-06T11:30:31.858Z,92.10
2017-12-06T11:33:02.063Z,91.90
2017-12-06T11:35:31.516Z,91.80
2017-12-06T11:38:01.715Z,92.50
2017-12-06T11:40:31.494Z,92.10
2017-12-06T11:43:00.964Z,92.20
2017-12-06T11:45:30.391Z,92.00
2017-12-06T11:48:00.590Z,92.30
2017-12-06T11:50:30.035Z,92.30
2017-12-06T11:52:59.463Z,92.00
2017-12-06T11:55:30.026Z,92.00
2017-12-06T11:57:59.509Z,92.00
2017-12-06T12:00:29.071Z,91.90
2017-12-06T12:02:58.323Z,91.80
2017-12-06T12:05:27.779Z,91.70
2017-12-06T12:07:57.283Z,91.40
2017-12-06T12:10:27.029Z,91.30
2017-12-06T12:12:56.451Z,91.60
2017-12-06T12:15:25.591Z,91.40
2017-12-06T12:17:55.889Z,91.40
2017-12-06T12:20:25.375Z,90.90
2017-12-06T12:22:55.571Z,91.50
2017-12-06T12:25:25.297Z,91.40
2017-12-06T12:27:54.743Z,90.80
2017-12-06T12:30:24.169Z,90.90
2017-12-06T12:32:54.745Z,90.50
2017-12-06T12:35:24.178Z,90.50
2017-12-06T12:37:52.989Z,90.30
2017-12-06T12:40:21.586Z,90.50
2017-12-06T12:42:50.176Z,91.00
2017-12-06T12:45:18.739Z,90.70
2017-12-06T12:47:47.338Z,90.60
2017-12-06T12:50:15.889Z,90.60
2017-12-06T12:52:45.232Z,91.00
2017-12-06T12:55:13.807Z,91.00
2017-12-06T12:57:43.166Z,90.50
2017-12-06T13:00:11.728Z,90.90
2017-12-06T13:02:40.643Z,90.50
2017-12-06T13:05:09.208Z,90.50
2017-12-06T13:07:38.737Z,90.80
2017-12-06T13:10:08.089Z,90.60
2017-12-06T13:12:36.661Z,90.60
2017-12-06T13:15:05.284Z,90.40
2017-12-06T13:17:34.065Z,90.60
2017-12-06T13:20:02.772Z,90.40
2017-12-06T13:22:31.372Z,90.50
2017-12-06T13:24:59.960Z,90.50
2017-12-06T13:27:28.603Z,90.30
2017-12-06T13:29:57.151Z,90.30
2017-12-06T13:32:27.084Z,90.50
2017-12-06T13:34:55.652Z,90.30
2017-12-06T13:37:25.214Z,90.30
2017-12-06T13:39:54.192Z,90.30
2017-12-06T13:42:22.996Z,90.20
2017-12-06T13:44:51.774Z,90.00
2017-12-06T13:47:20.614Z,90.10
2017-12-06T13:49:49.411Z,90.10
2017-12-06T13:52:17.784Z,90.30
2017-12-06T13:54:46.505Z,90.10
2017-12-06T13:57:15.275Z,90.20
2017-12-06T13:59:44.204Z,89.90
2017-12-06T14:02:13.935Z,89.70
2017-12-06T14:04:43.393Z,90.10
2017-12-06T14:07:13.275Z,90.00
2017-12-06T14:09:42.497Z,89.90
2017-12-06T14:12:11.243Z,90.10
2017-12-06T14:14:39.825Z,89.90
2017-12-06T14:17:09.619Z,89.00
2017-12-06T14:19:38.517Z,89.00
2017-12-06T14:22:07.432Z,88.80
2017-12-06T14:24:36.219Z,88.90
2017-12-06T14:27:04.804Z,88.70
2017-12-06T14:29:33.379Z,88.90
2017-12-06T14:32:02.013Z,89.30
2017-12-06T14:34:30.779Z,89.50
2017-12-06T14:36:59.380Z,89.40
2017-12-06T14:39:28.374Z,89.50
2017-12-06T14:41:57.170Z,89.70
2017-12-06T14:44:25.756Z,89.50
2017-12-06T14:46:55.305Z,89.90
2017-12-06T14:49:24.078Z,89.80
2017-12-06T14:51:52.845Z,89.40
2017-12-06T14:54:21.726Z,89.20
2017-12-06T14:56:51.143Z,89.00
2017-12-06T14:59:19.707Z,88.80
2017-12-06T15:01:48.709Z,88.60
2017-12-06T15:04:17.087Z,88.60
2017-12-06T15:06:45.846Z,89.20
2017-12-06T15:09:15.008Z,89.00
2017-12-06T15:11:43.585Z,89.70
2017-12-06T15:14:12.624Z,89.90
2017-12-06T15:16:41.200Z,90.40
2017-12-06T15:19:09.787Z,90.30
2017-12-06T15:21:38.555Z,90.40
2017-12-06T15:24:07.730Z,90.50
2017-12-06T15:26:36.510Z,90.40
2017-12-06T15:29:05.611Z,90.50
2017-12-06T15:31:34.398Z,90.40
2017-12-06T15:34:03.948Z,90.30
2017-12-06T15:36:32.723Z,90.20
2017-12-06T15:39:01.560Z,90.30
2017-12-06T15:41:30.140Z,90.30
2017-12-06T15:43:59.292Z,90.30
2017-12-06T15:46:28.147Z,90.20
2017-12-06T15:48:56.953Z,90.20
2017-12-06T15:51:25.780Z,90.20
2017-12-06T15:53:55.196Z,90.40
2017-12-06T15:56:23.788Z,90.60
2017-12-06T15:58:52.689Z,90.90
2017-12-06T16:01:21.896Z,91.10
2017-12-06T16:03:51.002Z,91.40
2017-12-06T16:06:19.901Z,91.50
2017-12-06T16:08:48.483Z,91.80
2017-12-06T16:11:17.247Z,92.10
2017-12-06T16:13:46.775Z,92.60
2017-12-06T16:16:15.399Z,92.50
2017-12-06T16:18:44.542Z,92.80
2017-12-06T16:21:13.144Z,92.80
2017-12-06T16:23:42.275Z,93.00
2017-12-06T16:26:11.986Z,93.30
2017-12-06T16:28:40.642Z,93.30
2017-12-06T16:31:09.526Z,93.40
2017-12-06T16:33:38.446Z,93.50
2017-12-06T16:36:19.004Z,93.70
2017-12-06T16:38:48.251Z,93.80
2017-12-06T16:41:16.845Z,94.00
2017-12-06T16:43:46.160Z,94.00
2017-12-06T16:46:15.262Z,94.20
2017-12-06T16:48:44.521Z,94.30
2017-12-06T16:51:14.395Z,94.50
2017-12-06T16:53:43.292Z,94.50
2017-12-06T16:56:12.598Z,94.60
2017-12-06T16:58:41.517Z,94.70
2017-12-06T17:01:10.965Z,94.80
2017-12-06T17:03:40.653Z,94.90
2017-12-06T17:06:09.937Z,94.90
2017-12-06T17:08:38.506Z,94.80
2017-12-06T17:11:08.084Z,95.00
2017-12-06T17:13:37.034Z,95.00
2017-12-06T17:16:05.859Z,95.10
2017-12-06T17:18:35.431Z,95.10
2017-12-06T17:21:06.023Z,95.10
2017-12-06T17:23:34.819Z,95.10
2017-12-06T17:26:03.579Z,95.20
2017-12-06T17:31:45.938Z,95.20
2017-12-06T17:34:15.793Z,95.40
2017-12-06T17:36:47.558Z,95.30
2017-12-06T17:39:16.360Z,95.30
2017-12-06T17:41:45.292Z,95.20
2017-12-06T17:44:13.869Z,95.30
2017-12-06T17:46:43.172Z,95.40
2017-12-06T17:49:11.794Z,95.50
2017-12-06T17:51:41.727Z,95.60
2017-12-06T17:54:10.807Z,95.60
2017-12-06T17:56:39.760Z,95.70
2017-12-06T17:59:08.608Z,95.60
2017-12-06T18:01:38.137Z,95.60
2017-12-06T18:04:07.113Z,95.70
2017-12-06T18:06:36.164Z,95.80
2017-12-06T18:09:05.739Z,95.80
2017-12-06T18:11:35.898Z,96.00
2017-12-06T18:14:04.792Z,96.00
2017-12-06T18:16:33.879Z,95.90
2017-12-06T18:19:03.550Z,96.20
2017-12-06T18:21:32.336Z,96.10
2017-12-06T18:24:01.637Z,96.10
2017-12-06T18:26:30.404Z,96.10
2017-12-06T18:28:59.942Z,96.50
2017-12-06T18:31:28.573Z,96.20
2017-12-06T18:33:57.593Z,96.10
2017-12-06T18:36:27.713Z,96.20
2017-12-06T18:38:56.846Z,96.10
2017-12-06T18:41:26.300Z,96.20
2017-12-06T18:43:55.452Z,96.20
2017-12-06T18:46:25.835Z,96.10
2017-12-06T18:49:02.847Z,96.00
2017-12-06T18:51:35.255Z,95.90
2017-12-06T18:54:05.306Z,95.80
2017-12-06T18:56:34.796Z,96.20
2017-12-06T18:59:04.694Z,95.80
2017-12-06T19:01:34.928Z,95.80
2017-12-06T19:04:05.699Z,95.70
2017-12-06T19:06:34.833Z,95.70
2017-12-06T19:09:03.498Z,95.70
2017-12-06T19:11:32.776Z,95.70
2017-12-06T19:14:03.068Z,95.70
2017-12-06T19:16:32.552Z,95.70
2017-12-06T19:19:01.828Z,95.60
2017-12-06T19:21:30.620Z,95.50
2017-12-06T19:24:00.896Z,95.30
2017-12-06T19:26:30.756Z,95.30
2017-12-06T19:29:00.358Z,95.40
2017-12-06T19:31:29.592Z,95.40
2017-12-06T19:33:59.081Z,95.40
2017-12-06T19:36:28.961Z,95.30
2017-12-06T19:38:59.394Z,95.10
2017-12-06T19:41:28.848Z,95.10
2017-12-06T19:43:58.331Z,95.10
2017-12-06T19:46:28.102Z,94.80
2017-12-06T19:48:58.098Z,94.60
2017-12-06T19:51:27.569Z,94.60
2017-12-06T19:53:57.400Z,94.80
2017-12-06T19:56:27.000Z,94.50
2017-12-06T19:58:56.449Z,94.80
2017-12-06T20:01:26.302Z,94.40
2017-12-06T20:03:55.759Z,94.50
2017-12-06T20:06:25.323Z,94.60
2017-12-06T20:08:54.796Z,94.40
2017-12-06T20:11:24.324Z,94.30
2017-12-06T20:13:54.455Z,94.30
2017-12-06T20:16:23.996Z,94.10
2017-12-06T20:18:57.022Z,94.10
2017-12-06T20:21:26.715Z,94.00
2017-12-06T20:23:56.528Z,94.00
2017-12-06T20:26:25.951Z,93.90
2017-12-06T20:28:55.395Z,94.00
2017-12-06T20:31:26.071Z,93.50
2017-12-06T20:33:55.522Z,93.70
2017-12-06T20:36:24.853Z,93.70
2017-12-06T20:38:54.725Z,93.40
2017-12-06T20:41:24.336Z,93.50
2017-12-06T20:43:54.091Z,93.20
2017-12-06T20:46:24.033Z,93.20
2017-12-06T20:48:53.485Z,93.10
2017-12-06T20:51:24.101Z,93.00
2017-12-06T20:53:54.273Z,93.10
2017-12-06T20:56:24.329Z,93.10
2017-12-06T20:58:53.958Z,93.10
2017-12-06T21:01:25.081Z,93.00
2017-12-06T21:03:54.551Z,92.90
2017-12-06T21:06:29.609Z,92.60
2017-12-06T21:08:59.224Z,92.60
2017-12-06T21:11:28.661Z,92.40
2017-12-06T21:13:59.301Z,92.30
2017-12-06T21:16:28.739Z,92.20
2017-12-06T21:18:59.401Z,92.10
2017-12-06T21:21:28.497Z,92.10
2017-12-06T21:23:58.769Z,91.90
2017-12-06T21:26:28.258Z,91.90
2017-12-06T21:28:57.753Z,91.90
2017-12-06T21:31:27.192Z,91.40
2017-12-06T21:33:57.045Z,91.30
2017-12-06T21:36:26.582Z,91.50
2017-12-06T21:38:57.552Z,90.50
2017-12-06T21:41:27.326Z,90.50
2017-12-06T21:43:56.591Z,90.10
2017-12-06T21:46:27.101Z,89.80
2017-12-06T21:48:56.539Z,89.70
2017-12-06T21:51:26.149Z,89.50
2017-12-06T21:53:55.784Z,88.80
2017-12-06T21:56:25.210Z,88.00
2017-12-06T21:58:55.775Z,88.20
2017-12-06T22:01:25.308Z,88.20
2017-12-06T22:03:54.936Z,88.30
2017-12-06T22:06:24.838Z,87.40
2017-12-06T22:08:54.276Z,87.40
2017-12-06T22:11:23.749Z,86.70
2017-12-06T22:13:54.400Z,85.80
2017-12-06T22:16:24.767Z,85.90
2017-12-06T22:18:54.241Z,85.90
2017-12-06T22:21:23.691Z,85.70
2017-12-06T22:23:53.137Z,86.10
2017-12-06T22:26:22.945Z,85.30
2017-12-06T22:28:52.423Z,85.40
2017-12-06T22:31:22.685Z,85.30
2017-12-06T22:33:53.075Z,86.00
2017-12-06T22:36:23.530Z,85.20
2017-12-06T22:38:52.831Z,85.20
2017-12-06T22:41:23.050Z,85.50
2017-12-06T22:43:53.342Z,85.40
2017-12-06T22:46:22.589Z,85.80
2017-12-06T22:48:52.818Z,86.70
2017-12-06T22:51:22.257Z,86.70
2017-12-06T22:53:51.372Z,87.00
2017-12-06T22:56:21.187Z,87.30
2017-12-06T22:58:50.621Z,87.20
2017-12-06T23:01:20.046Z,87.70
2017-12-06T23:03:49.289Z,87.50
2017-12-06T23:06:19.750Z,87.80
2017-12-06T23:08:49.280Z,87.50
2017-12-06T23:11:18.800Z,87.90
2017-12-06T23:13:47.605Z,87.80
2017-12-06T23:16:16.806Z,88.10
2017-12-06T23:18:46.423Z,88.10
2017-12-06T23:21:15.611Z,88.10
2017-12-06T23:23:45.297Z,88.20
2017-12-06T23:26:14.830Z,88.40
2017-12-06T23:28:44.327Z,88.40
2017-12-06T23:31:14.253Z,88.70
2017-12-06T23:33:43.435Z,88.70
2017-12-06T23:36:13.134Z,89.00
2017-12-06T23:38:42.599Z,89.00
2017-12-06T23:41:11.469Z,89.00
2017-12-06T23:43:40.757Z,89.00
2017-12-06T23:46:10.670Z,88.70
2017-12-06T23:48:39.782Z,89.00
2017-12-06T23:51:09.227Z,88.70
2017-12-06T23:53:39.533Z,88.70
2017-12-06T23:56:08.974Z,88.30
2017-12-06T23:58:38.412Z,88.30
